sensor_id;sensor_type;location;lat;lon;timestamp;P1;durP1;ratioP1;P2;durP2;ratioP2
21258;SDS011;10787;53.364;-1.480;2023-04-01T00:01:30;9.40;;;3.73;;
21258;SDS011;10787;53.364;-1.480;2023-04-01T00:04:14;8.57;;;3.83;;
21258;SDS011;10787;53.364;-1.480;2023-04-01T00:06:59;6.13;;;3.67;;
21258;SDS011;10787;53.364;-1.480;2023-04-01T00:09:45;6.70;;;3.50;;
21258;SDS011;10787;53.364;-1.480;2023-04-01T00:12:29;7.27;;;3.50;;
21258;SDS011;10787;53.364;-1.480;2023-04-01T00:15:14;6.47;;;3.40;;
21258;SDS011;10787;53.364;-1.480;2023-04-01T00:17:59;6.10;;;3.40;;
21258;SDS011;10787;53.364;-1.480;2023-04-01T00:20:45;6.37;;;3.40;;
21258;SDS011;10787;53.364;-1.480;2023-04-01T00:23:30;6.53;;;3.33;;
21258;SDS011;10787;53.364;-1.480;2023-04-01T00:26:15;8.60;;;3.70;;
21258;SDS011;10787;53.364;-1.480;2023-04-01T00:29:03;7.80;;;3.23;;
21258;SDS011;10787;53.364;-1.480;2023-04-01T00:31:47;5.73;;;3.20;;
21258;SDS011;10787;53.364;-1.480;2023-04-01T00:34:32;5.57;;;3.00;;
21258;SDS011;10787;53.364;-1.480;2023-04-01T00:37:17;5.43;;;2.93;;
21258;SDS011;10787;53.364;-1.480;2023-04-01T00:40:02;4.90;;;3.00;;
21258;SDS011;10787;53.364;-1.480;2023-04-01T00:42:48;5.30;;;2.70;;
21258;SDS011;10787;53.364;-1.480;2023-04-01T00:45:34;4.63;;;2.57;;
21258;SDS011;10787;53.364;-1.480;2023-04-01T00:48:31;6.33;;;3.33;;
21258;SDS011;10787;53.364;-1.480;2023-04-01T00:51:25;6.87;;;2.90;;
21258;SDS011;10787;53.364;-1.480;2023-04-01T00:54:12;5.57;;;2.90;;
21258;SDS011;10787;53.364;-1.480;2023-04-01T00:59:48;4.80;;;2.80;;
21258;SDS011;10787;53.364;-1.480;2023-04-01T01:02:36;5.43;;;3.13;;
21258;SDS011;10787;53.364;-1.480;2023-04-01T01:05:23;7.47;;;3.10;;
21258;SDS011;10787;53.364;-1.480;2023-04-01T01:08:35;5.13;;;3.17;;
21258;SDS011;10787;53.364;-1.480;2023-04-01T01:11:35;6.20;;;3.17;;
21258;SDS011;10787;53.364;-1.480;2023-04-01T01:17:32;5.57;;;2.90;;
21258;SDS011;10787;53.364;-1.480;2023-04-01T01:26:59;5.33;;;2.83;;
21258;SDS011;10787;53.364;-1.480;2023-04-01T01:30:05;6.40;;;2.97;;
21258;SDS011;10787;53.364;-1.480;2023-04-01T01:36:16;6.77;;;3.07;;
21258;SDS011;10787;53.364;-1.480;2023-04-01T01:39:03;6.70;;;3.30;;
21258;SDS011;10787;53.364;-1.480;2023-04-01T01:41:49;6.63;;;3.30;;
21258;SDS011;10787;53.364;-1.480;2023-04-01T01:44:34;5.47;;;3.20;;
21258;SDS011;10787;53.364;-1.480;2023-04-01T01:47:20;6.73;;;3.00;;
21258;SDS011;10787;53.364;-1.480;2023-04-01T01:50:07;5.63;;;2.83;;
21258;SDS011;10787;53.364;-1.480;2023-04-01T01:53:05;4.57;;;2.70;;
21258;SDS011;10787;53.364;-1.480;2023-04-01T01:55:51;6.07;;;3.40;;
21258;SDS011;10787;53.364;-1.480;2023-04-01T01:58:37;5.60;;;3.10;;
21258;SDS011;10787;53.364;-1.480;2023-04-01T02:01:31;5.70;;;2.87;;
21258;SDS011;10787;53.364;-1.480;2023-04-01T02:04:18;5.17;;;3.07;;
21258;SDS011;10787;53.364;-1.480;2023-04-01T02:07:04;3.77;;;2.60;;
21258;SDS011;10787;53.364;-1.480;2023-04-01T02:09:55;8.13;;;2.80;;
21258;SDS011;10787;53.364;-1.480;2023-04-01T02:12:40;6.20;;;2.30;;
21258;SDS011;10787;53.364;-1.480;2023-04-01T02:15:28;4.60;;;2.80;;
21258;SDS011;10787;53.364;-1.480;2023-04-01T02:18:16;4.37;;;2.50;;
21258;SDS011;10787;53.364;-1.480;2023-04-01T02:21:02;5.60;;;2.70;;
21258;SDS011;10787;53.364;-1.480;2023-04-01T02:23:48;4.97;;;2.50;;
21258;SDS011;10787;53.364;-1.480;2023-04-01T02:26:34;4.97;;;2.60;;
21258;SDS011;10787;53.364;-1.480;2023-04-01T02:29:22;5.53;;;2.90;;
21258;SDS011;10787;53.364;-1.480;2023-04-01T02:32:09;6.20;;;2.70;;
21258;SDS011;10787;53.364;-1.480;2023-04-01T02:34:54;7.53;;;2.63;;
21258;SDS011;10787;53.364;-1.480;2023-04-01T02:37:39;4.43;;;2.60;;
21258;SDS011;10787;53.364;-1.480;2023-04-01T02:40:25;4.07;;;2.53;;
21258;SDS011;10787;53.364;-1.480;2023-04-01T02:43:09;7.87;;;2.80;;
21258;SDS011;10787;53.364;-1.480;2023-04-01T02:45:54;5.53;;;2.67;;
21258;SDS011;10787;53.364;-1.480;2023-04-01T02:48:39;5.13;;;2.40;;
21258;SDS011;10787;53.364;-1.480;2023-04-01T02:51:23;6.10;;;2.37;;
21258;SDS011;10787;53.364;-1.480;2023-04-01T02:54:08;7.00;;;2.30;;
21258;SDS011;10787;53.364;-1.480;2023-04-01T02:56:53;5.83;;;2.27;;
21258;SDS011;10787;53.364;-1.480;2023-04-01T02:59:38;6.53;;;2.30;;
21258;SDS011;10787;53.364;-1.480;2023-04-01T03:02:22;3.97;;;1.97;;
21258;SDS011;10787;53.364;-1.480;2023-04-01T03:05:07;5.13;;;2.10;;
21258;SDS011;10787;53.364;-1.480;2023-04-01T03:07:51;6.30;;;2.00;;
21258;SDS011;10787;53.364;-1.480;2023-04-01T03:10:35;3.20;;;1.80;;
21258;SDS011;10787;53.364;-1.480;2023-04-01T03:13:19;7.97;;;1.60;;
21258;SDS011;10787;53.364;-1.480;2023-04-01T03:16:04;4.17;;;1.80;;
21258;SDS011;10787;53.364;-1.480;2023-04-01T03:18:48;3.43;;;1.77;;
21258;SDS011;10787;53.364;-1.480;2023-04-01T03:21:34;4.40;;;1.80;;
21258;SDS011;10787;53.364;-1.480;2023-04-01T03:24:19;5.00;;;2.00;;
21258;SDS011;10787;53.364;-1.480;2023-04-01T03:27:03;4.77;;;2.10;;
21258;SDS011;10787;53.364;-1.480;2023-04-01T03:29:48;3.50;;;2.03;;
21258;SDS011;10787;53.364;-1.480;2023-04-01T03:32:32;3.30;;;2.00;;
21258;SDS011;10787;53.364;-1.480;2023-04-01T03:35:17;5.47;;;2.27;;
21258;SDS011;10787;53.364;-1.480;2023-04-01T03:38:01;4.87;;;2.40;;
21258;SDS011;10787;53.364;-1.480;2023-04-01T03:40:46;6.60;;;2.10;;
21258;SDS011;10787;53.364;-1.480;2023-04-01T03:43:30;6.07;;;2.10;;
21258;SDS011;10787;53.364;-1.480;2023-04-01T03:46:18;3.03;;;1.80;;
21258;SDS011;10787;53.364;-1.480;2023-04-01T03:49:06;5.80;;;2.20;;
21258;SDS011;10787;53.364;-1.480;2023-04-01T03:51:54;5.37;;;2.27;;
21258;SDS011;10787;53.364;-1.480;2023-04-01T03:54:39;2.93;;;1.83;;
21258;SDS011;10787;53.364;-1.480;2023-04-01T03:57:23;5.07;;;2.07;;
21258;SDS011;10787;53.364;-1.480;2023-04-01T04:00:08;4.63;;;2.17;;
21258;SDS011;10787;53.364;-1.480;2023-04-01T04:02:53;3.97;;;2.00;;
21258;SDS011;10787;53.364;-1.480;2023-04-01T04:05:45;5.50;;;2.13;;
21258;SDS011;10787;53.364;-1.480;2023-04-01T04:08:33;5.83;;;1.83;;
21258;SDS011;10787;53.364;-1.480;2023-04-01T04:11:18;3.97;;;1.90;;
21258;SDS011;10787;53.364;-1.480;2023-04-01T04:14:03;3.67;;;2.17;;
21258;SDS011;10787;53.364;-1.480;2023-04-01T04:16:48;5.27;;;2.10;;
21258;SDS011;10787;53.364;-1.480;2023-04-01T04:19:32;3.53;;;1.80;;
21258;SDS011;10787;53.364;-1.480;2023-04-01T04:22:19;5.00;;;1.90;;
21258;SDS011;10787;53.364;-1.480;2023-04-01T04:25:04;4.57;;;1.97;;
21258;SDS011;10787;53.364;-1.480;2023-04-01T04:27:49;4.07;;;1.87;;
21258;SDS011;10787;53.364;-1.480;2023-04-01T04:30:34;4.97;;;2.10;;
21258;SDS011;10787;53.364;-1.480;2023-04-01T04:33:18;4.10;;;2.10;;
21258;SDS011;10787;53.364;-1.480;2023-04-01T04:36:03;4.97;;;1.90;;
21258;SDS011;10787;53.364;-1.480;2023-04-01T04:38:48;3.90;;;2.00;;
21258;SDS011;10787;53.364;-1.480;2023-04-01T04:41:32;3.50;;;1.83;;
21258;SDS011;10787;53.364;-1.480;2023-04-01T04:44:17;5.57;;;2.20;;
21258;SDS011;10787;53.364;-1.480;2023-04-01T04:47:01;4.93;;;2.10;;
21258;SDS011;10787;53.364;-1.480;2023-04-01T04:49:45;4.57;;;1.90;;
21258;SDS011;10787;53.364;-1.480;2023-04-01T04:52:30;6.10;;;2.03;;
21258;SDS011;10787;53.364;-1.480;2023-04-01T04:55:14;5.93;;;2.10;;
21258;SDS011;10787;53.364;-1.480;2023-04-01T04:57:58;3.83;;;1.90;;
21258;SDS011;10787;53.364;-1.480;2023-04-01T05:00:43;5.03;;;1.83;;
21258;SDS011;10787;53.364;-1.480;2023-04-01T05:03:27;3.70;;;1.43;;
21258;SDS011;10787;53.364;-1.480;2023-04-01T05:06:12;3.10;;;1.30;;
21258;SDS011;10787;53.364;-1.480;2023-04-01T05:09:01;5.00;;;1.50;;
21258;SDS011;10787;53.364;-1.480;2023-04-01T05:11:45;5.73;;;1.70;;
21258;SDS011;10787;53.364;-1.480;2023-04-01T05:14:29;4.23;;;1.60;;
21258;SDS011;10787;53.364;-1.480;2023-04-01T05:17:13;5.60;;;2.07;;
21258;SDS011;10787;53.364;-1.480;2023-04-01T05:19:58;8.87;;;2.37;;
21258;SDS011;10787;53.364;-1.480;2023-04-01T05:22:42;5.50;;;2.10;;
21258;SDS011;10787;53.364;-1.480;2023-04-01T05:25:27;5.83;;;2.10;;
21258;SDS011;10787;53.364;-1.480;2023-04-01T05:28:11;5.10;;;2.20;;
21258;SDS011;10787;53.364;-1.480;2023-04-01T05:30:58;6.80;;;2.10;;
21258;SDS011;10787;53.364;-1.480;2023-04-01T05:33:44;4.33;;;1.93;;
21258;SDS011;10787;53.364;-1.480;2023-04-01T05:36:28;5.27;;;2.10;;
21258;SDS011;10787;53.364;-1.480;2023-04-01T05:39:13;5.80;;;2.60;;
21258;SDS011;10787;53.364;-1.480;2023-04-01T05:41:57;5.53;;;2.80;;
21258;SDS011;10787;53.364;-1.480;2023-04-01T05:44:41;5.97;;;2.93;;
21258;SDS011;10787;53.364;-1.480;2023-04-01T05:47:25;7.83;;;3.30;;
21258;SDS011;10787;53.364;-1.480;2023-04-01T05:50:09;7.87;;;3.13;;
21258;SDS011;10787;53.364;-1.480;2023-04-01T05:52:54;5.60;;;3.10;;
21258;SDS011;10787;53.364;-1.480;2023-04-01T05:55:38;6.83;;;2.70;;
21258;SDS011;10787;53.364;-1.480;2023-04-01T05:58:23;5.60;;;2.57;;
21258;SDS011;10787;53.364;-1.480;2023-04-01T06:01:08;6.23;;;2.60;;
21258;SDS011;10787;53.364;-1.480;2023-04-01T06:03:54;7.13;;;2.70;;
21258;SDS011;10787;53.364;-1.480;2023-04-01T06:06:38;5.73;;;2.13;;
21258;SDS011;10787;53.364;-1.480;2023-04-01T06:09:27;5.57;;;2.27;;
21258;SDS011;10787;53.364;-1.480;2023-04-01T06:15:25;4.73;;;1.60;;
21258;SDS011;10787;53.364;-1.480;2023-04-01T06:45:55;5.50;;;2.23;;
21258;SDS011;10787;53.364;-1.480;2023-04-01T06:55:26;8.77;;;2.63;;
21258;SDS011;10787;53.364;-1.480;2023-04-01T06:58:23;6.07;;;2.47;;
21258;SDS011;10787;53.364;-1.480;2023-04-01T07:02:04;4.97;;;2.47;;
21258;SDS011;10787;53.364;-1.480;2023-04-01T07:04:33;6.27;;;2.50;;
21258;SDS011;10787;53.364;-1.480;2023-04-01T07:07:33;6.13;;;2.80;;
21258;SDS011;10787;53.364;-1.480;2023-04-01T07:10:25;7.17;;;2.80;;
21258;SDS011;10787;53.364;-1.480;2023-04-01T07:13:22;17.90;;;3.73;;
21258;SDS011;10787;53.364;-1.480;2023-04-01T07:16:21;5.43;;;2.33;;
21258;SDS011;10787;53.364;-1.480;2023-04-01T07:28:15;5.43;;;2.60;;
21258;SDS011;10787;53.364;-1.480;2023-04-01T07:37:10;4.93;;;2.63;;
21258;SDS011;10787;53.364;-1.480;2023-04-01T07:45:40;6.63;;;2.60;;
21258;SDS011;10787;53.364;-1.480;2023-04-01T07:51:27;7.00;;;2.40;;
21258;SDS011;10787;53.364;-1.480;2023-04-01T08:00:21;7.33;;;2.50;;
21258;SDS011;10787;53.364;-1.480;2023-04-01T08:09:08;5.13;;;2.60;;
21258;SDS011;10787;53.364;-1.480;2023-04-01T08:21:00;4.87;;;2.37;;
21258;SDS011;10787;53.364;-1.480;2023-04-01T08:23:47;4.73;;;2.40;;
21258;SDS011;10787;53.364;-1.480;2023-04-01T08:26:35;5.77;;;2.50;;
21258;SDS011;10787;53.364;-1.480;2023-04-01T08:29:31;4.63;;;2.43;;
21258;SDS011;10787;53.364;-1.480;2023-04-01T08:32:26;4.30;;;2.33;;
21258;SDS011;10787;53.364;-1.480;2023-04-01T08:38:27;5.97;;;2.80;;
21258;SDS011;10787;53.364;-1.480;2023-04-01T09:00:22;4.57;;;2.47;;
21258;SDS011;10787;53.364;-1.480;2023-04-01T09:06:33;5.93;;;2.50;;
21258;SDS011;10787;53.364;-1.480;2023-04-01T09:09:48;4.57;;;2.60;;
21258;SDS011;10787;53.364;-1.480;2023-04-01T09:12:59;5.73;;;2.47;;
21258;SDS011;10787;53.364;-1.480;2023-04-01T09:43:11;3.87;;;1.60;;
21258;SDS011;10787;53.364;-1.480;2023-04-01T10:17:49;2.70;;;1.20;;
21258;SDS011;10787;53.364;-1.480;2023-04-01T10:23:34;1.73;;;0.70;;
21258;SDS011;10787;53.364;-1.480;2023-04-01T10:26:28;1.53;;;0.80;;
21258;SDS011;10787;53.364;-1.480;2023-04-01T10:32:55;1.77;;;1.10;;
21258;SDS011;10787;53.364;-1.480;2023-04-01T10:54:20;2.00;;;1.50;;
21258;SDS011;10787;53.364;-1.480;2023-04-01T11:18:36;2.87;;;1.30;;
21258;SDS011;10787;53.364;-1.480;2023-04-01T11:21:50;2.33;;;1.50;;
21258;SDS011;10787;53.364;-1.480;2023-04-01T11:33:50;2.17;;;1.50;;
21258;SDS011;10787;53.364;-1.480;2023-04-01T12:16:53;2.80;;;1.20;;
21258;SDS011;10787;53.364;-1.480;2023-04-01T12:19:53;3.37;;;1.43;;
21258;SDS011;10787;53.364;-1.480;2023-04-01T12:39:11;3.07;;;1.10;;
21258;SDS011;10787;53.364;-1.480;2023-04-01T12:48:36;2.30;;;1.30;;
21258;SDS011;10787;53.364;-1.480;2023-04-01T12:57:45;2.83;;;1.30;;
21258;SDS011;10787;53.364;-1.480;2023-04-01T13:03:54;1.50;;;1.10;;
21258;SDS011;10787;53.364;-1.480;2023-04-01T13:15:52;3.43;;;1.40;;
21258;SDS011;10787;53.364;-1.480;2023-04-01T13:19:09;3.97;;;2.37;;
21258;SDS011;10787;53.364;-1.480;2023-04-01T13:25:14;3.23;;;1.80;;
21258;SDS011;10787;53.364;-1.480;2023-04-01T13:28:09;4.07;;;1.50;;
21258;SDS011;10787;53.364;-1.480;2023-04-01T13:31:11;4.60;;;1.83;;
21258;SDS011;10787;53.364;-1.480;2023-04-01T13:43:35;2.40;;;1.50;;
21258;SDS011;10787;53.364;-1.480;2023-04-01T14:02:17;3.37;;;1.37;;
21258;SDS011;10787;53.364;-1.480;2023-04-01T14:14:14;2.53;;;1.40;;
21258;SDS011;10787;53.364;-1.480;2023-04-01T14:26:14;2.37;;;1.63;;
21258;SDS011;10787;53.364;-1.480;2023-04-01T14:35:53;2.90;;;1.80;;
21258;SDS011;10787;53.364;-1.480;2023-04-01T14:39:00;2.90;;;1.80;;
21258;SDS011;10787;53.364;-1.480;2023-04-01T14:42:12;3.47;;;1.90;;
21258;SDS011;10787;53.364;-1.480;2023-04-01T14:54:31;4.40;;;1.90;;
21258;SDS011;10787;53.364;-1.480;2023-04-01T14:57:27;2.43;;;1.70;;
21258;SDS011;10787;53.364;-1.480;2023-04-01T15:00:13;4.67;;;1.90;;
21258;SDS011;10787;53.364;-1.480;2023-04-01T15:03:08;3.03;;;2.00;;
21258;SDS011;10787;53.364;-1.480;2023-04-01T15:06:27;2.50;;;1.70;;
21258;SDS011;10787;53.364;-1.480;2023-04-01T15:10:30;4.00;;;2.13;;
21258;SDS011;10787;53.364;-1.480;2023-04-01T15:19:18;3.73;;;2.60;;
21258;SDS011;10787;53.364;-1.480;2023-04-01T15:25:18;4.10;;;2.43;;
21258;SDS011;10787;53.364;-1.480;2023-04-01T15:38:05;4.17;;;2.23;;
21258;SDS011;10787;53.364;-1.480;2023-04-01T15:44:26;4.00;;;1.77;;
21258;SDS011;10787;53.364;-1.480;2023-04-01T15:55:59;5.20;;;2.50;;
21258;SDS011;10787;53.364;-1.480;2023-04-01T15:59:19;4.20;;;2.40;;
21258;SDS011;10787;53.364;-1.480;2023-04-01T16:11:13;9.23;;;4.00;;
21258;SDS011;10787;53.364;-1.480;2023-04-01T16:17:42;7.73;;;3.00;;
21258;SDS011;10787;53.364;-1.480;2023-04-01T16:20:53;7.50;;;3.20;;
21258;SDS011;10787;53.364;-1.480;2023-04-01T16:23:48;8.70;;;3.50;;
21258;SDS011;10787;53.364;-1.480;2023-04-01T16:26:44;7.50;;;3.47;;
21258;SDS011;10787;53.364;-1.480;2023-04-01T16:32:44;9.70;;;4.30;;
21258;SDS011;10787;53.364;-1.480;2023-04-01T16:38:45;10.73;;;4.47;;
21258;SDS011;10787;53.364;-1.480;2023-04-01T16:41:35;10.57;;;4.13;;
21258;SDS011;10787;53.364;-1.480;2023-04-01T16:44:26;7.77;;;4.40;;
21258;SDS011;10787;53.364;-1.480;2023-04-01T16:47:22;10.20;;;4.77;;
21258;SDS011;10787;53.364;-1.480;2023-04-01T16:50:21;8.43;;;4.20;;
21258;SDS011;10787;53.364;-1.480;2023-04-01T16:56:28;10.43;;;4.93;;
21258;SDS011;10787;53.364;-1.480;2023-04-01T16:59:32;10.87;;;4.67;;
21258;SDS011;10787;53.364;-1.480;2023-04-01T17:02:26;8.77;;;4.33;;
21258;SDS011;10787;53.364;-1.480;2023-04-01T17:05:18;13.07;;;5.10;;
21258;SDS011;10787;53.364;-1.480;2023-04-01T17:08:15;10.10;;;5.43;;
21258;SDS011;10787;53.364;-1.480;2023-04-01T17:19:53;10.60;;;5.50;;
21258;SDS011;10787;53.364;-1.480;2023-04-01T17:26:28;9.90;;;5.40;;
21258;SDS011;10787;53.364;-1.480;2023-04-01T17:35:12;7.03;;;4.00;;
21258;SDS011;10787;53.364;-1.480;2023-04-01T18:03:53;14.03;;;4.40;;
21258;SDS011;10787;53.364;-1.480;2023-04-01T18:06:59;17.73;;;10.80;;
21258;SDS011;10787;53.364;-1.480;2023-04-01T18:10:03;29.37;;;15.23;;
21258;SDS011;10787;53.364;-1.480;2023-04-01T18:23:03;16.97;;;9.23;;
21258;SDS011;10787;53.364;-1.480;2023-04-01T18:26:22;25.57;;;15.87;;
21258;SDS011;10787;53.364;-1.480;2023-04-01T18:32:37;11.43;;;5.80;;
21258;SDS011;10787;53.364;-1.480;2023-04-01T18:38:37;11.23;;;6.33;;
21258;SDS011;10787;53.364;-1.480;2023-04-01T18:47:41;9.67;;;6.07;;
21258;SDS011;10787;53.364;-1.480;2023-04-01T18:54:40;8.87;;;5.67;;
21258;SDS011;10787;53.364;-1.480;2023-04-01T19:05:56;9.77;;;5.00;;
21258;SDS011;10787;53.364;-1.480;2023-04-01T19:08:45;9.03;;;5.17;;
21258;SDS011;10787;53.364;-1.480;2023-04-01T19:11:36;8.60;;;5.20;;
21258;SDS011;10787;53.364;-1.480;2023-04-01T19:14:42;9.67;;;6.00;;
21258;SDS011;10787;53.364;-1.480;2023-04-01T19:42:06;30.53;;;19.00;;
21258;SDS011;10787;53.364;-1.480;2023-04-01T19:48:35;21.43;;;12.37;;
21258;SDS011;10787;53.364;-1.480;2023-04-01T20:00:59;10.50;;;6.70;;
21258;SDS011;10787;53.364;-1.480;2023-04-01T20:13:13;15.07;;;10.37;;
21258;SDS011;10787;53.364;-1.480;2023-04-01T20:16:04;14.97;;;10.23;;
21258;SDS011;10787;53.364;-1.480;2023-04-01T20:18:58;21.67;;;14.73;;
21258;SDS011;10787;53.364;-1.480;2023-04-01T20:21:46;15.70;;;10.97;;
21258;SDS011;10787;53.364;-1.480;2023-04-01T20:24:44;10.23;;;6.97;;
21258;SDS011;10787;53.364;-1.480;2023-04-01T20:27:35;10.17;;;6.50;;
21258;SDS011;10787;53.364;-1.480;2023-04-01T20:37:14;10.33;;;5.10;;
21258;SDS011;10787;53.364;-1.480;2023-04-01T20:40:31;10.77;;;5.07;;
21258;SDS011;10787;53.364;-1.480;2023-04-01T20:46:39;10.67;;;5.10;;
21258;SDS011;10787;53.364;-1.480;2023-04-01T20:53:15;13.60;;;7.80;;
21258;SDS011;10787;53.364;-1.480;2023-04-01T20:59:15;11.37;;;6.73;;
21258;SDS011;10787;53.364;-1.480;2023-04-01T21:02:41;11.23;;;7.23;;
21258;SDS011;10787;53.364;-1.480;2023-04-01T21:05:36;11.97;;;7.93;;
21258;SDS011;10787;53.364;-1.480;2023-04-01T21:15:29;10.97;;;7.00;;
21258;SDS011;10787;53.364;-1.480;2023-04-01T21:18:40;7.43;;;5.07;;
21258;SDS011;10787;53.364;-1.480;2023-04-01T21:55:59;8.37;;;4.50;;
21258;SDS011;10787;53.364;-1.480;2023-04-01T22:11:47;7.70;;;4.23;;
21258;SDS011;10787;53.364;-1.480;2023-04-01T22:14:14;8.73;;;4.33;;
21258;SDS011;10787;53.364;-1.480;2023-04-01T22:17:00;8.70;;;4.57;;
21258;SDS011;10787;53.364;-1.480;2023-04-01T22:19:57;7.43;;;4.87;;
21258;SDS011;10787;53.364;-1.480;2023-04-01T22:29:24;12.43;;;6.97;;
21258;SDS011;10787;53.364;-1.480;2023-04-01T22:32:23;16.97;;;7.80;;
21258;SDS011;10787;53.364;-1.480;2023-04-01T22:35:38;15.93;;;8.60;;
21258;SDS011;10787;53.364;-1.480;2023-04-01T22:44:58;19.93;;;9.60;;
21258;SDS011;10787;53.364;-1.480;2023-04-01T22:57:08;16.63;;;8.50;;
21258;SDS011;10787;53.364;-1.480;2023-04-01T23:06:12;15.03;;;8.10;;
21258;SDS011;10787;53.364;-1.480;2023-04-01T23:12:05;11.87;;;6.53;;
21258;SDS011;10787;53.364;-1.480;2023-04-01T23:14:55;10.80;;;6.30;;
21258;SDS011;10787;53.364;-1.480;2023-04-01T23:17:46;11.80;;;5.70;;
21258;SDS011;10787;53.364;-1.480;2023-04-01T23:27:03;16.63;;;10.67;;
21258;SDS011;10787;53.364;-1.480;2023-04-01T23:30:00;25.37;;;13.30;;
21258;SDS011;10787;53.364;-1.480;2023-04-01T23:32:46;17.70;;;9.17;;
21258;SDS011;10787;53.364;-1.480;2023-04-01T23:35:31;16.50;;;9.60;;
21258;SDS011;10787;53.364;-1.480;2023-04-01T23:38:16;15.20;;;9.20;;
21258;SDS011;10787;53.364;-1.480;2023-04-01T23:41:01;16.30;;;9.07;;
21258;SDS011;10787;53.364;-1.480;2023-04-01T23:43:48;15.83;;;9.20;;
21258;SDS011;10787;53.364;-1.480;2023-04-01T23:46:39;15.80;;;9.03;;
21258;SDS011;10787;53.364;-1.480;2023-04-01T23:49:37;15.53;;;7.97;;
21258;SDS011;10787;53.364;-1.480;2023-04-01T23:52:25;15.13;;;8.00;;
21258;SDS011;10787;53.364;-1.480;2023-04-01T23:55:17;14.67;;;7.73;;
